sensor_id;sensor_type;location;lat;lon;timestamp;temperature;humidity
73576;DHT22;61859;49.204;8.140;2023-04-03T00:01:23;4.30;79.20
73576;DHT22;61859;49.204;8.140;2023-04-03T00:03:48;4.30;79.60
73576;DHT22;61859;49.204;8.140;2023-04-03T00:06:14;3.90;80.30
73576;DHT22;61859;49.204;8.140;2023-04-03T00:08:40;3.80;80.90
73576;DHT22;61859;49.204;8.140;2023-04-03T00:11:06;3.50;81.40
73576;DHT22;61859;49.204;8.140;2023-04-03T00:13:32;3.50;81.90
73576;DHT22;61859;49.204;8.140;2023-04-03T00:15:58;3.40;82.90
73576;DHT22;61859;49.204;8.140;2023-04-03T00:18:24;3.20;83.50
73576;DHT22;61859;49.204;8.140;2023-04-03T00:20:50;3.40;83.80
73576;DHT22;61859;49.204;8.140;2023-04-03T00:23:17;3.20;84.30
73576;DHT22;61859;49.204;8.140;2023-04-03T00:25:43;2.90;85.10
73576;DHT22;61859;49.204;8.140;2023-04-03T00:28:09;3.00;85.00
73576;DHT22;61859;49.204;8.140;2023-04-03T00:30:34;3.00;85.30
73576;DHT22;61859;49.204;8.140;2023-04-03T00:33:00;2.80;85.60
73576;DHT22;61859;49.204;8.140;2023-04-03T00:35:26;2.80;85.50
73576;DHT22;61859;49.204;8.140;2023-04-03T00:37:53;2.80;85.70
73576;DHT22;61859;49.204;8.140;2023-04-03T00:40:20;2.70;85.80
73576;DHT22;61859;49.204;8.140;2023-04-03T00:42:48;2.70;86.10
73576;DHT22;61859;49.204;8.140;2023-04-03T00:45:39;2.70;86.00
73576;DHT22;61859;49.204;8.140;2023-04-03T00:48:08;2.60;85.80
73576;DHT22;61859;49.204;8.140;2023-04-03T00:50:37;2.60;86.20
73576;DHT22;61859;49.204;8.140;2023-04-03T00:53:04;2.70;86.00
73576;DHT22;61859;49.204;8.140;2023-04-03T00:55:31;2.50;86.30
73576;DHT22;61859;49.204;8.140;2023-04-03T00:57:57;2.60;86.40
73576;DHT22;61859;49.204;8.140;2023-04-03T01:00:26;2.60;86.40
73576;DHT22;61859;49.204;8.140;2023-04-03T01:02:52;2.50;86.80
73576;DHT22;61859;49.204;8.140;2023-04-03T01:05:19;2.50;86.90
73576;DHT22;61859;49.204;8.140;2023-04-03T01:07:46;2.50;86.70
73576;DHT22;61859;49.204;8.140;2023-04-03T01:10:15;2.20;86.80
73576;DHT22;61859;49.204;8.140;2023-04-03T01:12:43;2.30;87.20
73576;DHT22;61859;49.204;8.140;2023-04-03T01:15:10;2.10;87.30
73576;DHT22;61859;49.204;8.140;2023-04-03T01:22:59;2.30;87.90
73576;DHT22;61859;49.204;8.140;2023-04-03T01:25:31;2.20;88.20
73576;DHT22;61859;49.204;8.140;2023-04-03T01:27:57;2.10;88.40
73576;DHT22;61859;49.204;8.140;2023-04-03T01:30:28;1.90;87.80
73576;DHT22;61859;49.204;8.140;2023-04-03T01:32:55;2.20;88.10
73576;DHT22;61859;49.204;8.140;2023-04-03T01:35:21;2.10;87.90
73576;DHT22;61859;49.204;8.140;2023-04-03T01:37:46;2.20;87.80
73576;DHT22;61859;49.204;8.140;2023-04-03T01:40:12;2.10;88.00
73576;DHT22;61859;49.204;8.140;2023-04-03T01:42:38;2.20;88.10
73576;DHT22;61859;49.204;8.140;2023-04-03T01:45:03;2.10;88.00
73576;DHT22;61859;49.204;8.140;2023-04-03T01:47:29;2.10;87.90
73576;DHT22;61859;49.204;8.140;2023-04-03T01:49:55;2.10;88.20
73576;DHT22;61859;49.204;8.140;2023-04-03T01:52:20;1.90;88.40
73576;DHT22;61859;49.204;8.140;2023-04-03T01:54:46;2.00;88.10
73576;DHT22;61859;49.204;8.140;2023-04-03T01:57:12;2.00;88.60
73576;DHT22;61859;49.204;8.140;2023-04-03T01:59:38;2.20;88.20
73576;DHT22;61859;49.204;8.140;2023-04-03T02:02:04;2.00;88.20
73576;DHT22;61859;49.204;8.140;2023-04-03T02:04:30;2.10;88.30
73576;DHT22;61859;49.204;8.140;2023-04-03T02:06:55;2.10;88.30
73576;DHT22;61859;49.204;8.140;2023-04-03T02:09:21;2.10;88.40
73576;DHT22;61859;49.204;8.140;2023-04-03T02:11:46;1.90;88.50
73576;DHT22;61859;49.204;8.140;2023-04-03T02:14:12;2.10;88.10
73576;DHT22;61859;49.204;8.140;2023-04-03T02:16:37;1.90;88.80
73576;DHT22;61859;49.204;8.140;2023-04-03T02:19:03;2.00;88.50
73576;DHT22;61859;49.204;8.140;2023-04-03T02:21:29;1.90;88.30
73576;DHT22;61859;49.204;8.140;2023-04-03T02:23:54;1.90;88.40
73576;DHT22;61859;49.204;8.140;2023-04-03T02:26:20;1.90;88.60
73576;DHT22;61859;49.204;8.140;2023-04-03T02:28:46;2.10;88.50
73576;DHT22;61859;49.204;8.140;2023-04-03T02:31:12;2.00;88.20
73576;DHT22;61859;49.204;8.140;2023-04-03T02:33:38;1.90;88.40
73576;DHT22;61859;49.204;8.140;2023-04-03T02:36:05;2.00;87.80
73576;DHT22;61859;49.204;8.140;2023-04-03T02:38:31;2.00;88.10
73576;DHT22;61859;49.204;8.140;2023-04-03T02:41:05;2.10;88.10
73576;DHT22;61859;49.204;8.140;2023-04-03T02:43:31;1.80;88.30
73576;DHT22;61859;49.204;8.140;2023-04-03T02:45:56;2.00;88.60
73576;DHT22;61859;49.204;8.140;2023-04-03T02:48:22;1.80;89.20
73576;DHT22;61859;49.204;8.140;2023-04-03T02:50:48;2.00;89.30
73576;DHT22;61859;49.204;8.140;2023-04-03T02:53:14;2.00;89.60
73576;DHT22;61859;49.204;8.140;2023-04-03T02:55:40;1.90;89.70
73576;DHT22;61859;49.204;8.140;2023-04-03T02:58:06;1.90;89.70
73576;DHT22;61859;49.204;8.140;2023-04-03T03:00:32;2.10;89.90
73576;DHT22;61859;49.204;8.140;2023-04-03T03:02:58;2.10;90.10
73576;DHT22;61859;49.204;8.140;2023-04-03T03:05:23;2.00;90.10
73576;DHT22;61859;49.204;8.140;2023-04-03T03:07:49;2.10;90.00
73576;DHT22;61859;49.204;8.140;2023-04-03T03:10:15;2.10;89.70
73576;DHT22;61859;49.204;8.140;2023-04-03T03:12:40;2.30;90.10
73576;DHT22;61859;49.204;8.140;2023-04-03T03:15:06;2.20;90.00
73576;DHT22;61859;49.204;8.140;2023-04-03T03:17:32;2.10;89.90
73576;DHT22;61859;49.204;8.140;2023-04-03T03:19:58;2.20;90.00
73576;DHT22;61859;49.204;8.140;2023-04-03T03:22:23;2.20;90.30
73576;DHT22;61859;49.204;8.140;2023-04-03T03:24:49;2.20;89.90
73576;DHT22;61859;49.204;8.140;2023-04-03T03:27:15;2.30;89.80
73576;DHT22;61859;49.204;8.140;2023-04-03T03:29:41;2.30;89.80
73576;DHT22;61859;49.204;8.140;2023-04-03T03:32:07;2.40;89.50
73576;DHT22;61859;49.204;8.140;2023-04-03T03:34:32;2.40;89.80
73576;DHT22;61859;49.204;8.140;2023-04-03T03:36:58;2.40;90.10
73576;DHT22;61859;49.204;8.140;2023-04-03T03:39:23;2.30;89.90
73576;DHT22;61859;49.204;8.140;2023-04-03T03:41:49;2.60;89.80
73576;DHT22;61859;49.204;8.140;2023-04-03T03:44:15;2.50;89.80
73576;DHT22;61859;49.204;8.140;2023-04-03T03:46:40;2.60;89.50
73576;DHT22;61859;49.204;8.140;2023-04-03T03:49:06;2.60;89.60
73576;DHT22;61859;49.204;8.140;2023-04-03T03:51:31;2.60;89.60
73576;DHT22;61859;49.204;8.140;2023-04-03T03:53:57;2.70;89.60
73576;DHT22;61859;49.204;8.140;2023-04-03T03:56:22;2.50;89.60
73576;DHT22;61859;49.204;8.140;2023-04-03T03:58:48;2.70;89.10
73576;DHT22;61859;49.204;8.140;2023-04-03T04:01:14;2.60;89.10
73576;DHT22;61859;49.204;8.140;2023-04-03T04:03:40;2.80;89.20
73576;DHT22;61859;49.204;8.140;2023-04-03T04:06:06;2.70;89.00
73576;DHT22;61859;49.204;8.140;2023-04-03T04:08:32;2.70;89.20
73576;DHT22;61859;49.204;8.140;2023-04-03T04:10:57;2.80;88.90
73576;DHT22;61859;49.204;8.140;2023-04-03T04:13:24;2.80;88.80
73576;DHT22;61859;49.204;8.140;2023-04-03T04:15:49;2.80;88.70
73576;DHT22;61859;49.204;8.140;2023-04-03T04:18:15;2.60;88.40
73576;DHT22;61859;49.204;8.140;2023-04-03T04:20:41;2.70;88.50
73576;DHT22;61859;49.204;8.140;2023-04-03T04:23:06;2.90;88.60
73576;DHT22;61859;49.204;8.140;2023-04-03T04:25:32;2.90;88.20
73576;DHT22;61859;49.204;8.140;2023-04-03T04:27:58;2.80;88.20
73576;DHT22;61859;49.204;8.140;2023-04-03T04:30:23;2.90;88.50
73576;DHT22;61859;49.204;8.140;2023-04-03T04:32:49;2.80;88.00
73576;DHT22;61859;49.204;8.140;2023-04-03T04:35:14;2.60;87.80
73576;DHT22;61859;49.204;8.140;2023-04-03T04:37:40;2.60;87.90
73576;DHT22;61859;49.204;8.140;2023-04-03T04:40:07;2.60;88.20
73576;DHT22;61859;49.204;8.140;2023-04-03T04:42:32;2.30;88.50
73576;DHT22;61859;49.204;8.140;2023-04-03T04:44:58;2.20;88.80
73576;DHT22;61859;49.204;8.140;2023-04-03T04:47:23;2.20;89.10
73576;DHT22;61859;49.204;8.140;2023-04-03T04:49:49;2.00;89.70
73576;DHT22;61859;49.204;8.140;2023-04-03T04:52:14;1.90;89.90
73576;DHT22;61859;49.204;8.140;2023-04-03T04:54:40;1.50;90.40
73576;DHT22;61859;49.204;8.140;2023-04-03T04:57:05;1.70;90.80
73576;DHT22;61859;49.204;8.140;2023-04-03T04:59:31;1.60;91.00
73576;DHT22;61859;49.204;8.140;2023-04-03T05:01:56;1.50;91.10
73576;DHT22;61859;49.204;8.140;2023-04-03T05:04:22;1.40;91.50
73576;DHT22;61859;49.204;8.140;2023-04-03T05:06:48;1.30;91.60
73576;DHT22;61859;49.204;8.140;2023-04-03T05:09:13;1.30;91.90
73576;DHT22;61859;49.204;8.140;2023-04-03T05:11:39;1.10;92.00
73576;DHT22;61859;49.204;8.140;2023-04-03T05:14:04;1.10;92.80
73576;DHT22;61859;49.204;8.140;2023-04-03T05:16:33;1.10;92.70
73576;DHT22;61859;49.204;8.140;2023-04-03T05:18:58;1.10;92.90
73576;DHT22;61859;49.204;8.140;2023-04-03T05:21:24;1.20;92.90
73576;DHT22;61859;49.204;8.140;2023-04-03T05:23:51;1.20;93.00
73576;DHT22;61859;49.204;8.140;2023-04-03T05:26:17;0.90;93.50
73576;DHT22;61859;49.204;8.140;2023-04-03T05:28:43;1.00;93.60
73576;DHT22;61859;49.204;8.140;2023-04-03T05:31:08;1.10;93.80
73576;DHT22;61859;49.204;8.140;2023-04-03T05:33:34;1.00;93.80
73576;DHT22;61859;49.204;8.140;2023-04-03T05:36:06;1.00;93.60
73576;DHT22;61859;49.204;8.140;2023-04-03T05:38:32;1.10;93.70
73576;DHT22;61859;49.204;8.140;2023-04-03T05:40:58;1.10;93.50
73576;DHT22;61859;49.204;8.140;2023-04-03T05:43:23;1.00;93.60
73576;DHT22;61859;49.204;8.140;2023-04-03T05:45:50;0.90;93.70
73576;DHT22;61859;49.204;8.140;2023-04-03T05:48:15;1.10;93.70
73576;DHT22;61859;49.204;8.140;2023-04-03T05:50:41;1.10;93.70
73576;DHT22;61859;49.204;8.140;2023-04-03T05:53:17;1.10;93.90
73576;DHT22;61859;49.204;8.140;2023-04-03T05:55:43;1.30;93.60
73576;DHT22;61859;49.204;8.140;2023-04-03T05:58:09;1.40;93.70
73576;DHT22;61859;49.204;8.140;2023-04-03T06:00:34;1.60;93.60
73576;DHT22;61859;49.204;8.140;2023-04-03T06:03:00;1.60;93.20
73576;DHT22;61859;49.204;8.140;2023-04-03T06:05:25;1.80;92.80
73576;DHT22;61859;49.204;8.140;2023-04-03T06:07:51;2.20;92.70
73576;DHT22;61859;49.204;8.140;2023-04-03T06:10:16;2.20;92.00
73576;DHT22;61859;49.204;8.140;2023-04-03T06:12:42;2.60;91.60
73576;DHT22;61859;49.204;8.140;2023-04-03T06:15:08;2.80;90.60
73576;DHT22;61859;49.204;8.140;2023-04-03T06:17:35;3.20;89.50
73576;DHT22;61859;49.204;8.140;2023-04-03T06:20:01;3.20;88.70
73576;DHT22;61859;49.204;8.140;2023-04-03T06:22:28;3.40;87.90
73576;DHT22;61859;49.204;8.140;2023-04-03T06:24:56;3.30;86.70
73576;DHT22;61859;49.204;8.140;2023-04-03T06:27:21;3.50;86.20
73576;DHT22;61859;49.204;8.140;2023-04-03T06:29:47;3.50;86.10
73576;DHT22;61859;49.204;8.140;2023-04-03T06:32:14;3.60;86.10
73576;DHT22;61859;49.204;8.140;2023-04-03T06:34:39;3.70;86.10
73576;DHT22;61859;49.204;8.140;2023-04-03T06:37:05;3.60;86.20
73576;DHT22;61859;49.204;8.140;2023-04-03T06:39:31;3.80;85.90
73576;DHT22;61859;49.204;8.140;2023-04-03T06:41:57;3.90;85.50
73576;DHT22;61859;49.204;8.140;2023-04-03T06:44:23;4.00;84.80
73576;DHT22;61859;49.204;8.140;2023-04-03T06:46:49;4.10;84.20
73576;DHT22;61859;49.204;8.140;2023-04-03T06:49:14;4.20;83.60
73576;DHT22;61859;49.204;8.140;2023-04-03T06:51:40;4.50;83.50
73576;DHT22;61859;49.204;8.140;2023-04-03T06:54:06;4.60;82.90
73576;DHT22;61859;49.204;8.140;2023-04-03T06:56:34;4.70;82.90
73576;DHT22;61859;49.204;8.140;2023-04-03T06:58:59;4.90;81.80
73576;DHT22;61859;49.204;8.140;2023-04-03T07:01:27;4.80;81.70
73576;DHT22;61859;49.204;8.140;2023-04-03T07:03:54;5.00;81.40
73576;DHT22;61859;49.204;8.140;2023-04-03T07:06:20;5.40;80.80
73576;DHT22;61859;49.204;8.140;2023-04-03T07:08:46;5.90;80.20
73576;DHT22;61859;49.204;8.140;2023-04-03T07:11:13;5.90;79.30
73576;DHT22;61859;49.204;8.140;2023-04-03T07:13:39;6.30;78.40
73576;DHT22;61859;49.204;8.140;2023-04-03T07:16:05;6.20;77.20
73576;DHT22;61859;49.204;8.140;2023-04-03T07:18:32;6.50;77.00
73576;DHT22;61859;49.204;8.140;2023-04-03T07:20:58;6.60;77.60
73576;DHT22;61859;49.204;8.140;2023-04-03T07:23:24;6.70;76.80
73576;DHT22;61859;49.204;8.140;2023-04-03T07:25:51;6.90;76.10
73576;DHT22;61859;49.204;8.140;2023-04-03T07:28:18;7.00;76.50
73576;DHT22;61859;49.204;8.140;2023-04-03T07:30:45;7.10;75.30
73576;DHT22;61859;49.204;8.140;2023-04-03T07:33:12;7.20;75.70
73576;DHT22;61859;49.204;8.140;2023-04-03T07:35:39;7.30;75.50
73576;DHT22;61859;49.204;8.140;2023-04-03T07:38:04;7.30;75.20
73576;DHT22;61859;49.204;8.140;2023-04-03T07:40:30;7.50;74.00
73576;DHT22;61859;49.204;8.140;2023-04-03T07:42:56;7.50;74.00
73576;DHT22;61859;49.204;8.140;2023-04-03T07:45:22;7.60;73.20
73576;DHT22;61859;49.204;8.140;2023-04-03T07:47:48;7.70;72.90
73576;DHT22;61859;49.204;8.140;2023-04-03T07:50:14;7.60;73.50
73576;DHT22;61859;49.204;8.140;2023-04-03T07:52:39;7.80;73.00
73576;DHT22;61859;49.204;8.140;2023-04-03T07:55:06;8.00;73.20
73576;DHT22;61859;49.204;8.140;2023-04-03T07:57:31;8.40;70.50
73576;DHT22;61859;49.204;8.140;2023-04-03T07:59:57;8.50;70.20
73576;DHT22;61859;49.204;8.140;2023-04-03T08:02:22;8.80;70.90
73576;DHT22;61859;49.204;8.140;2023-04-03T08:04:48;9.00;68.40
73576;DHT22;61859;49.204;8.140;2023-04-03T08:07:13;9.10;65.80
73576;DHT22;61859;49.204;8.140;2023-04-03T08:09:39;9.20;65.90
73576;DHT22;61859;49.204;8.140;2023-04-03T08:12:04;9.40;65.60
73576;DHT22;61859;49.204;8.140;2023-04-03T08:14:31;9.60;65.50
73576;DHT22;61859;49.204;8.140;2023-04-03T08:16:59;9.70;64.30
73576;DHT22;61859;49.204;8.140;2023-04-03T08:19:26;9.90;63.90
73576;DHT22;61859;49.204;8.140;2023-04-03T08:21:52;10.10;62.00
73576;DHT22;61859;49.204;8.140;2023-04-03T08:24:18;9.90;62.20
73576;DHT22;61859;49.204;8.140;2023-04-03T08:26:43;9.90;62.10
73576;DHT22;61859;49.204;8.140;2023-04-03T08:29:09;10.00;63.90
73576;DHT22;61859;49.204;8.140;2023-04-03T08:31:35;10.20;63.00
73576;DHT22;61859;49.204;8.140;2023-04-03T08:34:00;10.60;61.30
73576;DHT22;61859;49.204;8.140;2023-04-03T08:36:27;10.70;60.70
73576;DHT22;61859;49.204;8.140;2023-04-03T08:38:54;10.90;61.30
73576;DHT22;61859;49.204;8.140;2023-04-03T08:41:31;11.20;59.80
73576;DHT22;61859;49.204;8.140;2023-04-03T08:46:56;11.10;57.30
73576;DHT22;61859;49.204;8.140;2023-04-03T08:49:59;10.90;56.90
73576;DHT22;61859;49.204;8.140;2023-04-03T08:52:53;10.70;58.60
73576;DHT22;61859;49.204;8.140;2023-04-03T08:55:27;10.90;54.10
73576;DHT22;61859;49.204;8.140;2023-04-03T08:58:05;10.80;54.50
73576;DHT22;61859;49.204;8.140;2023-04-03T09:00:47;11.00;54.00
73576;DHT22;61859;49.204;8.140;2023-04-03T09:03:16;11.30;51.70
73576;DHT22;61859;49.204;8.140;2023-04-03T09:05:55;11.10;51.50
73576;DHT22;61859;49.204;8.140;2023-04-03T09:11:34;10.30;54.60
73576;DHT22;61859;49.204;8.140;2023-04-03T09:14:07;10.20;53.80
73576;DHT22;61859;49.204;8.140;2023-04-03T09:16:49;10.20;55.20
73576;DHT22;61859;49.204;8.140;2023-04-03T09:22:20;10.40;54.40
73576;DHT22;61859;49.204;8.140;2023-04-03T09:24:57;10.30;52.20
73576;DHT22;61859;49.204;8.140;2023-04-03T09:27:24;10.10;53.60
73576;DHT22;61859;49.204;8.140;2023-04-03T09:29:53;10.20;55.70
73576;DHT22;61859;49.204;8.140;2023-04-03T09:32:21;10.40;53.70
73576;DHT22;61859;49.204;8.140;2023-04-03T09:34:47;10.70;52.40
73576;DHT22;61859;49.204;8.140;2023-04-03T09:37:35;10.80;51.90
73576;DHT22;61859;49.204;8.140;2023-04-03T09:40:01;11.00;51.50
73576;DHT22;61859;49.204;8.140;2023-04-03T09:42:27;11.50;50.80
73576;DHT22;61859;49.204;8.140;2023-04-03T09:44:57;12.10;49.70
73576;DHT22;61859;49.204;8.140;2023-04-03T09:47:28;12.20;50.70
73576;DHT22;61859;49.204;8.140;2023-04-03T09:52:40;12.90;48.40
73576;DHT22;61859;49.204;8.140;2023-04-03T09:57:47;13.00;47.50
73576;DHT22;61859;49.204;8.140;2023-04-03T10:00:43;13.20;47.70
73576;DHT22;61859;49.204;8.140;2023-04-03T10:03:34;13.70;47.10
73576;DHT22;61859;49.204;8.140;2023-04-03T10:06:02;14.30;46.40
73576;DHT22;61859;49.204;8.140;2023-04-03T10:08:33;14.60;45.00
73576;DHT22;61859;49.204;8.140;2023-04-03T10:11:11;15.00;45.00
73576;DHT22;61859;49.204;8.140;2023-04-03T10:13:50;15.00;44.10
73576;DHT22;61859;49.204;8.140;2023-04-03T10:16:18;14.30;44.80
73576;DHT22;61859;49.204;8.140;2023-04-03T10:18:55;13.70;45.20
73576;DHT22;61859;49.204;8.140;2023-04-03T10:21:54;13.10;46.30
73576;DHT22;61859;49.204;8.140;2023-04-03T10:24:31;12.80;48.30
73576;DHT22;61859;49.204;8.140;2023-04-03T10:41:28;11.80;48.80
73576;DHT22;61859;49.204;8.140;2023-04-03T10:46:28;11.70;49.70
73576;DHT22;61859;49.204;8.140;2023-04-03T10:49:10;11.70;49.10
73576;DHT22;61859;49.204;8.140;2023-04-03T10:54:38;11.60;50.20
73576;DHT22;61859;49.204;8.140;2023-04-03T10:57:08;11.50;49.60
73576;DHT22;61859;49.204;8.140;2023-04-03T10:59:50;11.10;49.40
73576;DHT22;61859;49.204;8.140;2023-04-03T11:02:36;11.00;50.80
73576;DHT22;61859;49.204;8.140;2023-04-03T11:05:13;10.90;50.50
73576;DHT22;61859;49.204;8.140;2023-04-03T11:07:48;10.80;50.40
73576;DHT22;61859;49.204;8.140;2023-04-03T11:10:23;10.90;51.90
73576;DHT22;61859;49.204;8.140;2023-04-03T11:13:01;12.50;49.10
73576;DHT22;61859;49.204;8.140;2023-04-03T11:15:32;13.50;46.80
73576;DHT22;61859;49.204;8.140;2023-04-03T11:18:03;13.50;46.00
73576;DHT22;61859;49.204;8.140;2023-04-03T11:20:32;13.50;46.70
73576;DHT22;61859;49.204;8.140;2023-04-03T11:23:22;13.30;45.60
73576;DHT22;61859;49.204;8.140;2023-04-03T11:25:53;13.10;45.60
73576;DHT22;61859;49.204;8.140;2023-04-03T11:28:19;12.90;44.60
73576;DHT22;61859;49.204;8.140;2023-04-03T11:31:02;12.90;45.80
73576;DHT22;61859;49.204;8.140;2023-04-03T11:36:30;12.70;47.80
73576;DHT22;61859;49.204;8.140;2023-04-03T11:39:00;12.50;48.00
73576;DHT22;61859;49.204;8.140;2023-04-03T11:41:31;12.20;48.80
73576;DHT22;61859;49.204;8.140;2023-04-03T11:44:06;11.70;49.10
73576;DHT22;61859;49.204;8.140;2023-04-03T11:46:52;11.30;49.00
73576;DHT22;61859;49.204;8.140;2023-04-03T11:49:50;11.10;50.80
73576;DHT22;61859;49.204;8.140;2023-04-03T11:58:10;11.20;49.00
73576;DHT22;61859;49.204;8.140;2023-04-03T12:00:55;11.10;49.50
73576;DHT22;61859;49.204;8.140;2023-04-03T12:16:10;11.40;49.40
73576;DHT22;61859;49.204;8.140;2023-04-03T12:45:58;11.30;47.20
73576;DHT22;61859;49.204;8.140;2023-04-03T12:48:30;11.30;47.40
73576;DHT22;61859;49.204;8.140;2023-04-03T12:50:58;11.60;48.00
73576;DHT22;61859;49.204;8.140;2023-04-03T12:53:34;12.10;46.90
73576;DHT22;61859;49.204;8.140;2023-04-03T12:58:50;12.50;47.00
73576;DHT22;61859;49.204;8.140;2023-04-03T13:01:20;12.70;47.40
73576;DHT22;61859;49.204;8.140;2023-04-03T13:03:49;12.60;46.80
73576;DHT22;61859;49.204;8.140;2023-04-03T13:06:28;12.60;47.10
73576;DHT22;61859;49.204;8.140;2023-04-03T13:08:58;12.50;45.40
73576;DHT22;61859;49.204;8.140;2023-04-03T13:11:30;12.50;46.30
73576;DHT22;61859;49.204;8.140;2023-04-03T13:14:03;12.50;46.60
73576;DHT22;61859;49.204;8.140;2023-04-03T13:16:31;12.30;46.50
73576;DHT22;61859;49.204;8.140;2023-04-03T13:18:57;12.20;47.20
73576;DHT22;61859;49.204;8.140;2023-04-03T13:21:28;12.30;47.00
73576;DHT22;61859;49.204;8.140;2023-04-03T13:24:00;12.30;47.00
73576;DHT22;61859;49.204;8.140;2023-04-03T13:26:30;12.30;46.90
73576;DHT22;61859;49.204;8.140;2023-04-03T13:28:59;12.40;46.50
73576;DHT22;61859;49.204;8.140;2023-04-03T13:31:29;12.70;47.00
73576;DHT22;61859;49.204;8.140;2023-04-03T13:33:57;13.30;45.90
73576;DHT22;61859;49.204;8.140;2023-04-03T13:36:30;13.50;44.70
73576;DHT22;61859;49.204;8.140;2023-04-03T13:41:43;13.30;44.10
73576;DHT22;61859;49.204;8.140;2023-04-03T13:47:36;12.80;44.90
73576;DHT22;61859;49.204;8.140;2023-04-03T13:49:36;12.80;45.00
73576;DHT22;61859;49.204;8.140;2023-04-03T13:52:52;12.60;45.00
73576;DHT22;61859;49.204;8.140;2023-04-03T13:55:25;12.30;46.80
73576;DHT22;61859;49.204;8.140;2023-04-03T13:58:38;11.80;46.30
73576;DHT22;61859;49.204;8.140;2023-04-03T14:03:23;12.20;45.00
73576;DHT22;61859;49.204;8.140;2023-04-03T14:05:51;13.60;42.80
73576;DHT22;61859;49.204;8.140;2023-04-03T14:08:18;15.30;41.60
73576;DHT22;61859;49.204;8.140;2023-04-03T14:10:44;17.20;38.90
73576;DHT22;61859;49.204;8.140;2023-04-03T14:13:13;18.10;36.70
73576;DHT22;61859;49.204;8.140;2023-04-03T14:15:40;18.00;35.90
73576;DHT22;61859;49.204;8.140;2023-04-03T14:18:06;16.50;36.90
73576;DHT22;61859;49.204;8.140;2023-04-03T14:20:31;15.30;37.90
73576;DHT22;61859;49.204;8.140;2023-04-03T14:22:57;14.80;39.30
73576;DHT22;61859;49.204;8.140;2023-04-03T14:25:23;15.80;38.70
73576;DHT22;61859;49.204;8.140;2023-04-03T14:27:51;16.90;37.40
73576;DHT22;61859;49.204;8.140;2023-04-03T14:30:21;18.00;36.60
73576;DHT22;61859;49.204;8.140;2023-04-03T14:32:48;19.20;35.10
73576;DHT22;61859;49.204;8.140;2023-04-03T14:35:15;19.70;34.30
73576;DHT22;61859;49.204;8.140;2023-04-03T14:37:41;20.60;34.60
73576;DHT22;61859;49.204;8.140;2023-04-03T14:40:08;21.20;33.60
73576;DHT22;61859;49.204;8.140;2023-04-03T14:42:37;21.30;33.10
73576;DHT22;61859;49.204;8.140;2023-04-03T14:45:09;20.50;33.60
73576;DHT22;61859;49.204;8.140;2023-04-03T14:47:50;19.30;33.70
73576;DHT22;61859;49.204;8.140;2023-04-03T14:50:21;17.90;36.30
73576;DHT22;61859;49.204;8.140;2023-04-03T14:52:48;18.20;35.20
73576;DHT22;61859;49.204;8.140;2023-04-03T14:55:16;18.60;35.30
73576;DHT22;61859;49.204;8.140;2023-04-03T14:57:42;19.10;33.90
73576;DHT22;61859;49.204;8.140;2023-04-03T15:00:13;18.70;35.00
73576;DHT22;61859;49.204;8.140;2023-04-03T15:02:40;19.10;34.70
73576;DHT22;61859;49.204;8.140;2023-04-03T15:05:08;19.70;34.60
73576;DHT22;61859;49.204;8.140;2023-04-03T15:07:39;21.00;33.50
73576;DHT22;61859;49.204;8.140;2023-04-03T15:12:40;19.70;33.40
73576;DHT22;61859;49.204;8.140;2023-04-03T15:15:07;18.40;34.50
73576;DHT22;61859;49.204;8.140;2023-04-03T15:17:33;16.50;36.00
73576;DHT22;61859;49.204;8.140;2023-04-03T15:19:59;15.10;37.60
73576;DHT22;61859;49.204;8.140;2023-04-03T15:22:25;14.10;39.40
73576;DHT22;61859;49.204;8.140;2023-04-03T15:24:51;14.60;39.50
73576;DHT22;61859;49.204;8.140;2023-04-03T15:27:16;15.90;37.80
73576;DHT22;61859;49.204;8.140;2023-04-03T15:29:43;17.10;36.70
73576;DHT22;61859;49.204;8.140;2023-04-03T15:32:09;18.50;35.90
73576;DHT22;61859;49.204;8.140;2023-04-03T15:34:36;19.40;33.40
73576;DHT22;61859;49.204;8.140;2023-04-03T15:37:01;20.00;33.70
73576;DHT22;61859;49.204;8.140;2023-04-03T15:39:27;20.50;32.80
73576;DHT22;61859;49.204;8.140;2023-04-03T15:41:53;20.00;32.50
73576;DHT22;61859;49.204;8.140;2023-04-03T15:44:19;19.10;33.70
73576;DHT22;61859;49.204;8.140;2023-04-03T15:46:46;17.50;34.90
73576;DHT22;61859;49.204;8.140;2023-04-03T15:49:12;16.00;36.60
73576;DHT22;61859;49.204;8.140;2023-04-03T15:51:38;15.00;38.50
73576;DHT22;61859;49.204;8.140;2023-04-03T15:54:03;15.10;39.90
73576;DHT22;61859;49.204;8.140;2023-04-03T15:56:29;15.80;38.80
73576;DHT22;61859;49.204;8.140;2023-04-03T15:58:55;16.70;36.20
73576;DHT22;61859;49.204;8.140;2023-04-03T16:01:20;17.80;35.90
73576;DHT22;61859;49.204;8.140;2023-04-03T16:03:46;18.80;34.60
73576;DHT22;61859;49.204;8.140;2023-04-03T16:06:18;19.30;33.10
73576;DHT22;61859;49.204;8.140;2023-04-03T16:08:45;18.70;32.80
73576;DHT22;61859;49.204;8.140;2023-04-03T16:11:11;18.20;34.50
73576;DHT22;61859;49.204;8.140;2023-04-03T16:13:37;18.70;34.40
73576;DHT22;61859;49.204;8.140;2023-04-03T16:16:03;19.20;33.50
73576;DHT22;61859;49.204;8.140;2023-04-03T16:18:29;20.10;32.90
73576;DHT22;61859;49.204;8.140;2023-04-03T16:20:55;20.60;33.10
73576;DHT22;61859;49.204;8.140;2023-04-03T16:23:21;20.80;31.20
73576;DHT22;61859;49.204;8.140;2023-04-03T16:25:47;20.70;31.90
73576;DHT22;61859;49.204;8.140;2023-04-03T16:28:13;20.70;31.60
73576;DHT22;61859;49.204;8.140;2023-04-03T16:30:43;20.10;32.40
73576;DHT22;61859;49.204;8.140;2023-04-03T16:33:10;19.10;32.20
73576;DHT22;61859;49.204;8.140;2023-04-03T16:35:36;17.80;33.50
73576;DHT22;61859;49.204;8.140;2023-04-03T16:38:01;16.70;34.70
73576;DHT22;61859;49.204;8.140;2023-04-03T16:40:27;16.60;35.40
73576;DHT22;61859;49.204;8.140;2023-04-03T16:42:52;17.00;35.50
73576;DHT22;61859;49.204;8.140;2023-04-03T16:45:18;17.40;34.70
73576;DHT22;61859;49.204;8.140;2023-04-03T16:47:44;18.10;34.40
73576;DHT22;61859;49.204;8.140;2023-04-03T16:50:09;18.90;33.90
73576;DHT22;61859;49.204;8.140;2023-04-03T16:52:35;19.20;33.10
73576;DHT22;61859;49.204;8.140;2023-04-03T16:55:01;19.00;32.00
73576;DHT22;61859;49.204;8.140;2023-04-03T16:57:27;19.00;32.50
73576;DHT22;61859;49.204;8.140;2023-04-03T16:59:53;19.10;32.50
73576;DHT22;61859;49.204;8.140;2023-04-03T17:02:20;19.00;33.00
73576;DHT22;61859;49.204;8.140;2023-04-03T17:04:45;18.90;32.50
73576;DHT22;61859;49.204;8.140;2023-04-03T17:07:11;18.60;33.50
73576;DHT22;61859;49.204;8.140;2023-04-03T17:09:36;18.50;32.60
73576;DHT22;61859;49.204;8.140;2023-04-03T17:12:03;17.80;33.70
73576;DHT22;61859;49.204;8.140;2023-04-03T17:14:29;17.50;34.90
73576;DHT22;61859;49.204;8.140;2023-04-03T17:16:54;16.90;34.60
73576;DHT22;61859;49.204;8.140;2023-04-03T17:19:20;16.70;35.10
73576;DHT22;61859;49.204;8.140;2023-04-03T17:21:46;16.50;35.30
73576;DHT22;61859;49.204;8.140;2023-04-03T17:24:13;16.50;35.70
73576;DHT22;61859;49.204;8.140;2023-04-03T17:26:40;16.60;35.90
73576;DHT22;61859;49.204;8.140;2023-04-03T17:29:06;16.30;35.60